createdAt,value
2022-10-31T00:01:33.977Z,66.69
2022-10-31T00:04:01.391Z,66.85
2022-10-31T00:06:28.837Z,66.95
2022-10-31T00:08:58.665Z,66.89
2022-10-31T00:11:26.126Z,66.69
2022-10-31T00:13:53.630Z,66.81
2022-10-31T00:16:25.042Z,67.20
2022-10-31T00:19:03.576Z,66.78
2022-10-31T00:21:31.291Z,67.01
2022-10-31T00:23:59.682Z,66.51
2022-10-31T00:26:29.079Z,66.83
2022-10-31T00:28:56.534Z,67.10
2022-10-31T00:31:23.981Z,66.73
2022-10-31T00:33:51.473Z,66.72
2022-10-31T00:36:20.061Z,67.01
2022-10-31T00:38:47.807Z,66.69
2022-10-31T00:41:16.741Z,66.66
2022-10-31T00:43:44.239Z,66.67
2022-10-31T00:46:12.446Z,66.24
2022-10-31T00:48:39.998Z,66.16
2022-10-31T00:51:07.691Z,66.25
2022-10-31T00:53:35.134Z,65.91
2022-10-31T00:56:02.740Z,66.21
2022-10-31T00:58:30.705Z,65.97
2022-10-31T01:00:58.196Z,66.19
2022-10-31T01:03:27.508Z,65.96
2022-10-31T01:06:05.052Z,66.24
2022-10-31T01:08:34.684Z,66.08
2022-10-31T01:11:07.199Z,66.63
2022-10-31T01:13:35.234Z,66.32
2022-10-31T01:16:02.834Z,65.86
2022-10-31T01:18:30.300Z,65.74
2022-10-31T01:21:17.308Z,65.71
2022-10-31T01:23:44.755Z,65.82
2022-10-31T01:26:21.993Z,66.20
2022-10-31T01:28:53.787Z,66.10
2022-10-31T01:31:22.020Z,66.07
2022-10-31T01:33:49.664Z,65.96
2022-10-31T01:36:19.585Z,65.82
2022-10-31T01:38:47.768Z,66.02
2022-10-31T01:41:20.406Z,66.32
2022-10-31T01:43:50.613Z,66.38
2022-10-31T01:46:38.170Z,66.46
2022-10-31T01:49:10.555Z,66.16
2022-10-31T01:51:39.972Z,65.97
2022-10-31T01:54:08.474Z,66.11
2022-10-31T01:56:37.156Z,66.10
2022-10-31T01:59:05.894Z,65.96
2022-10-31T02:01:34.746Z,66.26
2022-10-31T02:04:02.167Z,66.06
2022-10-31T02:06:36.917Z,66.18
2022-10-31T02:09:05.548Z,66.02
2022-10-31T02:11:33.278Z,66.22
2022-10-31T02:14:01.262Z,66.00
2022-10-31T02:16:28.748Z,65.93
2022-10-31T02:18:56.132Z,65.95
2022-10-31T02:22:06.988Z,66.17
2022-10-31T02:25:03.049Z,66.25
2022-10-31T02:28:07.948Z,66.35
2022-10-31T02:31:00.880Z,66.02
2022-10-31T02:33:34.196Z,66.16
2022-10-31T02:36:10.061Z,66.08
2022-10-31T02:38:58.831Z,65.84
2022-10-31T02:41:41.723Z,65.95
2022-10-31T02:44:28.185Z,65.80
2022-10-31T02:47:06.632Z,65.55
2022-10-31T02:49:46.749Z,65.85
2022-10-31T02:52:30.271Z,65.67
2022-10-31T02:55:13.391Z,65.68
2022-10-31T02:57:41.290Z,65.56
2022-10-31T03:00:09.402Z,65.61
2022-10-31T03:03:04.665Z,65.20
2022-10-31T03:05:49.894Z,65.38
2022-10-31T03:08:21.764Z,65.55
2022-10-31T03:11:00.986Z,65.88
2022-10-31T03:13:49.710Z,65.58
2022-10-31T03:16:24.895Z,65.53
2022-10-31T03:19:25.631Z,65.61
2022-10-31T03:22:01.895Z,65.48
2022-10-31T03:24:33.652Z,65.28
2022-10-31T03:27:01.105Z,65.07
2022-10-31T03:29:32.207Z,65.43
2022-10-31T03:32:07.817Z,65.36
2022-10-31T03:34:36.640Z,65.26
2022-10-31T03:37:06.138Z,65.25
2022-10-31T03:39:33.684Z,65.34
2022-10-31T03:42:03.800Z,65.62
2022-10-31T03:44:31.223Z,65.44
2022-10-31T03:47:01.848Z,65.34
2022-10-31T03:49:29.264Z,65.72
2022-10-31T03:52:08.420Z,65.59
2022-10-31T03:54:43.394Z,65.61
2022-10-31T03:57:27.807Z,65.70
2022-10-31T04:00:05.748Z,65.31
2022-10-31T04:02:35.889Z,65.30
2022-10-31T04:05:03.525Z,65.08
2022-10-31T04:07:34.544Z,65.06
2022-10-31T04:10:03.271Z,65.27
2022-10-31T04:12:30.692Z,65.28
2022-10-31T04:15:11.490Z,65.15
2022-10-31T04:17:42.041Z,65.48
2022-10-31T04:20:09.853Z,64.95
2022-10-31T04:22:37.263Z,65.12
2022-10-31T04:25:05.130Z,64.94
2022-10-31T04:27:32.412Z,65.19
2022-10-31T04:30:00.679Z,65.31
2022-10-31T04:32:28.792Z,65.08
2022-10-31T04:34:56.419Z,65.30
2022-10-31T04:37:23.881Z,65.13
2022-10-31T04:39:51.311Z,65.39
2022-10-31T04:42:41.498Z,65.00
2022-10-31T04:45:15.466Z,65.17
2022-10-31T04:47:49.083Z,65.14
2022-10-31T04:50:16.471Z,65.14
2022-10-31T04:52:45.639Z,64.94
2022-10-31T04:55:15.819Z,65.25
2022-10-31T04:58:14.651Z,64.96
2022-10-31T05:00:42.264Z,65.03
2022-10-31T05:03:09.755Z,65.15
2022-10-31T05:05:37.154Z,64.90
2022-10-31T05:08:04.818Z,65.27
2022-10-31T05:10:33.325Z,64.79
2022-10-31T05:13:03.175Z,64.78
2022-10-31T05:15:54.193Z,64.85
2022-10-31T05:18:41.875Z,64.91
2022-10-31T05:21:27.689Z,65.03
2022-10-31T05:23:59.958Z,65.02
2022-10-31T05:26:27.804Z,64.68
2022-10-31T05:28:56.158Z,64.75
2022-10-31T05:31:24.238Z,64.88
2022-10-31T05:33:53.075Z,64.78
2022-10-31T05:36:39.184Z,64.52
2022-10-31T05:39:15.737Z,64.87
2022-10-31T05:41:47.552Z,64.81
2022-10-31T05:44:20.156Z,64.60
2022-10-31T05:47:07.787Z,64.93
2022-10-31T05:49:53.988Z,64.44
2022-10-31T05:52:42.109Z,64.53
2022-10-31T05:55:35.747Z,64.82
2022-10-31T05:58:22.953Z,65.02
2022-10-31T06:00:58.827Z,64.99
2022-10-31T06:03:26.396Z,64.85
2022-10-31T06:05:58.072Z,64.54
2022-10-31T06:08:30.611Z,64.68
2022-10-31T06:11:01.753Z,64.82
2022-10-31T06:13:47.906Z,64.55
2022-10-31T06:16:24.034Z,64.39
2022-10-31T06:18:52.376Z,64.60
2022-10-31T06:21:20.199Z,64.63
2022-10-31T06:23:49.881Z,64.39
2022-10-31T06:26:46.216Z,64.43
2022-10-31T06:29:14.198Z,64.45
2022-10-31T06:31:57.285Z,64.79
2022-10-31T06:34:25.593Z,64.71
2022-10-31T06:36:53.486Z,65.03
2022-10-31T06:39:24.319Z,64.30
2022-10-31T06:41:51.818Z,64.93
2022-10-31T06:44:24.571Z,64.92
2022-10-31T06:47:01.017Z,65.04
2022-10-31T06:50:07.052Z,64.88
2022-10-31T06:52:35.696Z,64.35
2022-10-31T06:55:05.383Z,64.70
2022-10-31T06:57:34.504Z,65.00
2022-10-31T07:00:01.948Z,64.81
2022-10-31T07:02:40.033Z,64.72
2022-10-31T07:05:07.639Z,64.75
2022-10-31T07:07:35.076Z,64.71
2022-10-31T07:10:03.546Z,64.70
2022-10-31T07:13:02.219Z,65.06
2022-10-31T07:15:37.001Z,65.08
2022-10-31T07:18:05.362Z,64.83
2022-10-31T07:20:33.882Z,64.95
2022-10-31T07:23:02.026Z,65.16
2022-10-31T07:25:32.080Z,65.33
2022-10-31T07:28:02.698Z,65.19
2022-10-31T07:30:33.066Z,65.45
2022-10-31T07:33:00.842Z,65.58
2022-10-31T07:35:48.302Z,65.92
2022-10-31T07:38:18.648Z,65.73
2022-10-31T07:40:50.741Z,65.88
2022-10-31T07:43:20.820Z,65.96
2022-10-31T07:46:09.894Z,66.15
2022-10-31T07:49:16.612Z,66.17
2022-10-31T07:52:02.964Z,66.48
2022-10-31T07:54:59.370Z,66.56
2022-10-31T07:57:29.489Z,66.39
2022-10-31T08:00:01.218Z,67.08
2022-10-31T08:02:30.161Z,67.31
2022-10-31T08:05:20.366Z,67.13
2022-10-31T08:08:06.497Z,67.81
2022-10-31T08:10:34.319Z,67.05
2022-10-31T08:13:06.605Z,67.48
2022-10-31T08:15:37.965Z,66.86
2022-10-31T08:18:06.318Z,66.92
2022-10-31T08:20:34.283Z,66.65
2022-10-31T08:23:05.325Z,67.07
2022-10-31T08:25:38.576Z,67.19
2022-10-31T08:28:07.416Z,67.70
2022-10-31T08:30:36.709Z,67.86
2022-10-31T08:33:22.681Z,67.30
2022-10-31T08:36:08.789Z,67.51
2022-10-31T08:38:59.134Z,67.42
2022-10-31T08:41:30.070Z,67.55
2022-10-31T08:43:58.114Z,67.94
2022-10-31T08:46:25.556Z,67.83
2022-10-31T08:48:52.974Z,67.88
2022-10-31T08:51:21.187Z,67.98
2022-10-31T08:53:52.173Z,68.31
2022-10-31T08:56:34.845Z,67.87
2022-10-31T08:59:05.060Z,68.45
2022-10-31T09:01:52.513Z,68.59
2022-10-31T09:04:20.074Z,68.35
2022-10-31T09:09:34.966Z,68.39
2022-10-31T09:12:02.878Z,68.15
2022-10-31T09:14:56.692Z,68.63
2022-10-31T09:17:30.106Z,68.71
2022-10-31T09:20:16.423Z,68.24
2022-10-31T09:22:43.896Z,68.86
2022-10-31T09:25:11.625Z,68.15
2022-10-31T09:27:40.593Z,67.73
2022-10-31T09:30:08.876Z,68.07
2022-10-31T09:32:36.935Z,68.27
2022-10-31T09:35:07.098Z,68.77
2022-10-31T09:37:35.361Z,68.52
2022-10-31T09:40:02.831Z,68.58
2022-10-31T09:43:08.490Z,68.31
2022-10-31T09:45:54.685Z,68.15
2022-10-31T09:48:55.972Z,67.70
2022-10-31T09:51:39.823Z,68.30
2022-10-31T09:54:51.506Z,68.19
2022-10-31T09:57:24.165Z,68.24
2022-10-31T09:59:52.023Z,67.67
2022-10-31T10:02:32.078Z,67.76
2022-10-31T10:05:13.552Z,67.35
2022-10-31T10:07:56.109Z,67.50
2022-10-31T10:11:34.723Z,67.92
2022-10-31T10:14:24.288Z,67.59
2022-10-31T10:17:00.554Z,67.61
2022-10-31T10:20:06.703Z,67.22
2022-10-31T10:22:46.348Z,67.13
2022-10-31T10:25:25.602Z,68.02
2022-10-31T10:28:49.996Z,68.45
2022-10-31T10:31:29.942Z,68.42
2022-10-31T10:34:07.903Z,68.34
2022-10-31T10:36:45.929Z,68.13
2022-10-31T10:39:17.823Z,68.27
2022-10-31T10:41:47.780Z,68.34
2022-10-31T10:44:16.655Z,68.95
2022-10-31T10:47:06.987Z,68.83
2022-10-31T10:49:49.209Z,68.81
2022-10-31T10:52:49.216Z,68.76
2022-10-31T10:55:16.632Z,68.81
2022-10-31T10:57:55.094Z,69.02
2022-10-31T11:00:27.278Z,68.79
2022-10-31T11:02:54.823Z,68.88
2022-10-31T11:05:37.544Z,69.14
2022-10-31T11:08:05.536Z,68.61
2022-10-31T11:10:34.279Z,68.73
2022-10-31T11:13:07.501Z,68.74
2022-10-31T11:15:49.734Z,68.57
2022-10-31T11:18:22.582Z,69.47
2022-10-31T11:20:54.669Z,68.63
2022-10-31T11:23:23.641Z,68.61
2022-10-31T11:26:07.401Z,68.67
2022-10-31T11:28:37.614Z,68.59
2022-10-31T11:31:14.928Z,68.64
2022-10-31T11:33:45.381Z,68.85
2022-10-31T11:36:24.989Z,68.66
2022-10-31T11:38:52.843Z,68.71
2022-10-31T11:41:43.540Z,69.06
2022-10-31T11:44:21.561Z,68.63
2022-10-31T11:47:02.761Z,68.78
2022-10-31T11:49:38.362Z,68.82
2022-10-31T11:52:13.806Z,68.84
2022-10-31T11:54:55.671Z,69.11
2022-10-31T11:57:25.107Z,69.13
2022-10-31T11:59:57.067Z,69.08
2022-10-31T12:02:24.648Z,68.80
2022-10-31T12:05:34.244Z,68.90
2022-10-31T12:08:04.435Z,69.27
2022-10-31T12:10:56.348Z,69.21
2022-10-31T12:13:40.343Z,69.33
2022-10-31T12:16:21.511Z,69.19
2022-10-31T12:19:12.495Z,69.14
2022-10-31T12:22:10.887Z,68.94
2022-10-31T12:24:40.820Z,68.95
2022-10-31T12:27:26.927Z,69.28
2022-10-31T12:30:00.336Z,69.16
2022-10-31T12:32:52.641Z,68.82
2022-10-31T12:35:27.678Z,69.00
2022-10-31T12:38:01.298Z,69.01
2022-10-31T12:40:47.153Z,69.28
2022-10-31T12:43:26.573Z,69.45
2022-10-31T12:45:56.003Z,68.89
2022-10-31T12:48:57.262Z,69.09
2022-10-31T12:51:34.035Z,68.91
2022-10-31T12:54:28.680Z,69.17
2022-10-31T12:57:26.215Z,69.20
2022-10-31T13:00:08.631Z,69.12
2022-10-31T13:02:57.463Z,69.62
2022-10-31T13:05:35.278Z,69.42
2022-10-31T13:08:41.754Z,69.01
2022-10-31T13:11:13.740Z,69.05
2022-10-31T13:13:41.056Z,69.21
2022-10-31T13:16:16.742Z,69.47
2022-10-31T13:18:55.298Z,69.56
2022-10-31T13:21:24.686Z,69.42
2022-10-31T13:23:55.070Z,69.45
2022-10-31T13:26:37.866Z,69.82
2022-10-31T13:29:31.744Z,69.85
2022-10-31T13:32:07.201Z,69.47
2022-10-31T13:34:36.490Z,69.85
2022-10-31T13:37:32.154Z,69.97
2022-10-31T13:40:33.645Z,69.68
2022-10-31T13:43:47.139Z,69.97
2022-10-31T13:46:25.384Z,69.74
2022-10-31T13:48:52.827Z,69.97
2022-10-31T13:51:30.949Z,69.67
2022-10-31T13:54:00.773Z,69.60
2022-10-31T13:56:31.580Z,70.09
2022-10-31T13:58:59.040Z,69.69
2022-10-31T14:01:26.533Z,69.85
2022-10-31T14:04:13.173Z,70.12
2022-10-31T14:06:45.028Z,69.75
2022-10-31T14:09:29.514Z,70.05
2022-10-31T14:11:57.894Z,69.97
2022-10-31T14:14:33.996Z,70.03
2022-10-31T14:17:01.565Z,69.81
2022-10-31T14:19:29.067Z,70.21
2022-10-31T14:21:56.461Z,70.04
2022-10-31T14:24:23.800Z,70.30
2022-10-31T14:26:55.966Z,70.27
2022-10-31T14:29:31.429Z,70.24
2022-10-31T14:32:13.472Z,70.48
2022-10-31T14:34:51.718Z,70.55
2022-10-31T14:37:46.944Z,70.28
2022-10-31T14:40:36.118Z,70.52
2022-10-31T14:43:45.536Z,70.53
2022-10-31T14:46:54.965Z,70.32
2022-10-31T14:49:59.210Z,70.62
2022-10-31T14:52:26.656Z,70.19
2022-10-31T14:54:56.034Z,70.52
2022-10-31T14:57:28.931Z,70.45
2022-10-31T15:00:03.870Z,70.16
2022-10-31T15:02:55.139Z,70.52
2022-10-31T15:05:22.697Z,70.58
2022-10-31T15:07:57.519Z,70.52
2022-10-31T15:10:33.176Z,70.44
2022-10-31T15:13:11.470Z,70.83
2022-10-31T15:15:39.153Z,70.38
2022-10-31T15:18:06.887Z,70.74
2022-10-31T15:20:44.107Z,70.71
2022-10-31T15:23:15.328Z,70.93
2022-10-31T15:25:42.722Z,70.75
2022-10-31T15:28:30.484Z,70.73
2022-10-31T15:31:01.623Z,70.83
2022-10-31T15:33:37.527Z,71.04
2022-10-31T15:36:06.379Z,71.29
2022-10-31T15:38:40.030Z,70.85
2022-10-31T15:41:26.171Z,70.79
2022-10-31T15:43:53.579Z,71.21
2022-10-31T15:46:20.964Z,70.90
2022-10-31T15:48:48.420Z,71.12
2022-10-31T15:51:15.829Z,70.72
2022-10-31T15:53:47.890Z,71.07
2022-10-31T15:56:21.799Z,70.96
2022-10-31T15:58:51.494Z,70.92
2022-10-31T16:01:25.749Z,70.85
2022-10-31T16:03:59.964Z,71.11
2022-10-31T16:06:27.353Z,70.97
2022-10-31T16:08:55.395Z,70.93
2022-10-31T16:11:35.077Z,70.62
2022-10-31T16:14:08.093Z,70.03
2022-10-31T16:16:45.532Z,70.81
2022-10-31T16:19:34.343Z,70.58
2022-10-31T16:22:07.145Z,70.64
2022-10-31T16:24:44.204Z,70.00
2022-10-31T16:27:26.549Z,70.17
2022-10-31T16:29:53.991Z,69.43
2022-10-31T16:32:30.809Z,69.95
2022-10-31T16:35:11.062Z,69.87
2022-10-31T16:37:39.243Z,69.61
2022-10-31T16:40:07.609Z,69.14
2022-10-31T16:42:35.080Z,69.49
2022-10-31T16:45:02.544Z,69.90
2022-10-31T16:47:30.001Z,70.02
2022-10-31T16:50:00.927Z,70.28
2022-10-31T16:55:55.391Z,69.74
2022-10-31T16:58:24.681Z,69.80
2022-10-31T17:00:52.669Z,69.41
2022-10-31T17:03:20.188Z,68.92
2022-10-31T17:05:47.599Z,69.08
2022-10-31T17:08:15.081Z,69.18
2022-10-31T17:10:46.069Z,69.33
2022-10-31T17:13:24.124Z,68.95
2022-10-31T17:15:52.591Z,68.63
2022-10-31T17:18:24.463Z,68.89
2022-10-31T17:20:59.650Z,68.81
2022-10-31T17:23:27.466Z,68.85
2022-10-31T17:25:55.258Z,68.86
2022-10-31T17:28:22.639Z,69.43
2022-10-31T17:30:50.005Z,69.28
2022-10-31T17:33:17.564Z,69.48
2022-10-31T17:35:45.079Z,70.18
2022-10-31T17:38:12.720Z,69.83
2022-10-31T17:40:42.187Z,69.37
2022-10-31T17:43:12.883Z,69.17
2022-10-31T17:45:40.954Z,68.91
2022-10-31T17:48:11.022Z,69.37
2022-10-31T17:50:38.403Z,69.23
2022-10-31T17:53:05.840Z,69.02
2022-10-31T17:55:37.204Z,68.57
2022-10-31T17:58:05.217Z,68.48
2022-10-31T18:00:32.865Z,68.81
2022-10-31T18:03:03.368Z,69.03
2022-10-31T18:05:31.294Z,68.90
2022-10-31T18:08:02.549Z,68.53
2022-10-31T18:10:33.220Z,68.61
2022-10-31T18:13:01.538Z,68.85
2022-10-31T18:15:29.108Z,68.77
2022-10-31T18:17:56.514Z,69.14
2022-10-31T18:20:23.960Z,69.05
2022-10-31T18:22:51.359Z,68.91
2022-10-31T18:25:18.757Z,69.16
2022-10-31T18:27:46.098Z,69.26
2022-10-31T18:30:13.543Z,69.25
2022-10-31T18:32:40.958Z,68.86
2022-10-31T18:35:08.598Z,69.02
2022-10-31T18:37:35.970Z,69.30
2022-10-31T18:40:03.823Z,69.02
2022-10-31T18:42:31.187Z,68.96
2022-10-31T18:45:06.616Z,68.73
2022-10-31T18:47:46.027Z,68.76
2022-10-31T18:50:13.470Z,68.68
2022-10-31T18:52:40.862Z,68.99
2022-10-31T18:55:08.729Z,68.63
2022-10-31T18:57:36.137Z,68.96
2022-10-31T19:00:04.839Z,68.86
2022-10-31T19:02:32.304Z,68.81
2022-10-31T19:04:59.804Z,68.56
2022-10-31T19:07:27.230Z,68.71
2022-10-31T19:09:54.668Z,68.59
2022-10-31T19:12:22.281Z,68.81
2022-10-31T19:14:49.615Z,68.84
2022-10-31T19:17:17.143Z,68.84
2022-10-31T19:19:44.603Z,68.76
2022-10-31T19:22:12.042Z,68.78
2022-10-31T19:24:39.445Z,68.57
2022-10-31T19:27:08.334Z,68.63
2022-10-31T19:29:35.774Z,68.73
2022-10-31T19:32:03.121Z,68.91
2022-10-31T19:34:30.548Z,68.64
2022-10-31T19:36:57.980Z,68.70
2022-10-31T19:39:25.575Z,68.96
2022-10-31T19:41:52.957Z,68.76
2022-10-31T19:44:20.323Z,68.31
2022-10-31T19:46:53.586Z,68.44
2022-10-31T19:49:21.568Z,68.25
2022-10-31T19:51:49.056Z,68.19
2022-10-31T19:54:16.910Z,68.23
2022-10-31T19:56:44.356Z,68.53
2022-10-31T19:59:11.787Z,68.45
2022-10-31T20:01:39.312Z,68.46
2022-10-31T20:04:07.246Z,68.37
2022-10-31T20:06:36.883Z,68.77
2022-10-31T20:09:08.164Z,68.39
2022-10-31T20:11:36.612Z,68.00
2022-10-31T20:14:04.235Z,68.45
2022-10-31T20:16:32.512Z,68.32
2022-10-31T20:18:59.939Z,68.59
2022-10-31T20:21:29.755Z,68.49
2022-10-31T20:23:58.626Z,68.28
2022-10-31T20:26:26.033Z,67.95
2022-10-31T20:28:55.138Z,68.09
2022-10-31T20:31:23.597Z,67.91
2022-10-31T20:33:51.086Z,68.12
2022-10-31T20:36:22.905Z,68.39
2022-10-31T20:38:51.114Z,68.11
2022-10-31T20:41:18.503Z,68.19
2022-10-31T20:43:46.144Z,68.08
2022-10-31T20:46:15.302Z,68.21
2022-10-31T20:48:42.783Z,68.00
2022-10-31T20:51:12.288Z,67.66
2022-10-31T20:53:39.652Z,67.45
2022-10-31T20:56:10.218Z,67.87
2022-10-31T20:58:38.370Z,67.47
2022-10-31T21:01:08.484Z,67.57
2022-10-31T21:03:36.645Z,67.89
2022-10-31T21:06:04.267Z,67.49
2022-10-31T21:08:32.137Z,67.86
2022-10-31T21:11:00.101Z,67.90
2022-10-31T21:13:28.544Z,67.36
2022-10-31T21:15:59.932Z,67.46
2022-10-31T21:18:27.356Z,67.29
2022-10-31T21:20:54.816Z,67.35
2022-10-31T21:23:22.319Z,67.40
2022-10-31T21:25:49.740Z,67.42
2022-10-31T21:28:17.189Z,67.89
2022-10-31T21:30:48.945Z,67.64
2022-10-31T21:33:16.366Z,67.57
2022-10-31T21:35:51.303Z,67.45
2022-10-31T21:38:18.745Z,67.16
2022-10-31T21:40:46.340Z,67.26
2022-10-31T21:43:13.876Z,67.21
2022-10-31T21:45:41.285Z,67.34
2022-10-31T21:48:08.739Z,67.02
2022-10-31T21:50:36.172Z,67.24
2022-10-31T21:53:23.477Z,67.16
2022-10-31T21:55:50.861Z,67.38
2022-10-31T21:58:18.233Z,67.73
2022-10-31T22:00:45.680Z,67.55
2022-10-31T22:03:13.112Z,67.29
2022-10-31T22:05:40.457Z,67.42
2022-10-31T22:08:07.848Z,67.07
2022-10-31T22:10:35.246Z,67.12
2022-10-31T22:13:02.605Z,66.82
2022-10-31T22:15:29.986Z,67.49
2022-10-31T22:17:57.359Z,67.02
2022-10-31T22:20:26.178Z,66.52
2022-10-31T22:22:53.664Z,66.97
2022-10-31T22:25:21.019Z,66.98
2022-10-31T22:27:48.391Z,66.85
2022-10-31T22:30:15.779Z,66.82
2022-10-31T22:32:43.190Z,66.81
2022-10-31T22:35:10.579Z,66.45
2022-10-31T22:37:37.997Z,66.43
2022-10-31T22:40:05.970Z,66.49
2022-10-31T22:42:33.370Z,66.75
2022-10-31T22:45:02.853Z,66.79
2022-10-31T22:47:30.353Z,66.47
2022-10-31T22:49:57.811Z,66.57
2022-10-31T22:52:25.258Z,66.90
2022-10-31T22:54:55.531Z,66.51
2022-10-31T22:57:25.892Z,66.18
2022-10-31T22:59:53.245Z,65.90
2022-10-31T23:02:21.013Z,66.00
2022-10-31T23:04:48.525Z,66.20
2022-10-31T23:07:17.997Z,65.86
2022-10-31T23:09:47.563Z,66.19
2022-10-31T23:12:33.550Z,66.13
2022-10-31T23:15:00.913Z,65.95
2022-10-31T23:17:28.317Z,65.90
2022-10-31T23:19:55.685Z,65.94
2022-10-31T23:22:23.049Z,65.79
2022-10-31T23:24:50.487Z,66.34
2022-10-31T23:27:21.681Z,66.14
2022-10-31T23:29:52.987Z,66.01
2022-10-31T23:32:22.861Z,66.15
2022-10-31T23:34:51.386Z,66.46
2022-10-31T23:37:19.761Z,65.94
2022-10-31T23:39:47.339Z,65.70
2022-10-31T23:42:15.541Z,65.96
2022-10-31T23:44:43.084Z,65.64
2022-10-31T23:47:10.598Z,65.55
2022-10-31T23:49:38.095Z,66.37
2022-10-31T23:52:05.748Z,66.30
2022-10-31T23:54:33.734Z,66.47
2022-10-31T23:57:03.968Z,65.96
2022-10-31T23:59:31.465Z,66.10
